Ernst Oldendorff — 9HA3962 — position and weather

sailwx.info

Track history (hours):
 
Tides and Currents Weather Stations Pressure Air Temp Water Temp Dewpoint Dewpoint Depression Visibility Wind Speed Wind Dir Waves Ship Positions

Ernst Oldendorff

Last reported at 2018-Feb-13 07:10 UTC. Time now 2018-Feb-17 19:21 UTC.
Position N 32°01' E 120°23'.

Length 180 m; draft 9.7 m.

Type: Cargo ship. MMSI: 256606000.

Date/timePositionNaut miles runAvg speedWind from/ knotsBaromVisibWave heightAir tempDewpointWater temp
2018-Feb-13 07:10N 32°01' E 120°23'211.9
2018-Feb-13 06:59N 32°02' E 120°26'3610.1
2018-Feb-13 03:26N 31°46' E 121°03'613.7
2018-Feb-13 03:00N 31°42' E 121°09'713.6
2018-Feb-13 02:30N 31°38' E 121°15'613.1
2018-Feb-13 02:01N 31°33' E 121°20'611.7
2018-Feb-13 01:31N 31°30' E 121°26'510.2
2018-Feb-13 01:00N 31°26' E 121°30'4 7.4
2018-Feb-13 00:30N 31°24' E 121°33'611.4
2018-Feb-13 00:00N 31°21' E 121°39'611.2
2018-Feb-12 23:29N 31°19' E 121°45'511.1
2018-Feb-12 23:00N 31°16' E 121°51'4 8.9
2018-Feb-12 22:30N 31°15' E 121°56'5 9.0
2018-Feb-12 21:59N 31°15' E 122°01'5 9.6
2018-Feb-12 21:30N 31°13' E 122°07'510.4
2018-Feb-12 21:00N 31°10' E 122°12'510.3
2018-Feb-12 20:30N 31°07' E 122°17'510.9
2018-Feb-12 20:00N 31°06' E 122°23'5 8.2
2018-Feb-12 19:21N 31°07' E 122°29'1 1.5
2018-Feb-12 18:56N 31°07' E 122°30'1 1.5
2018-Feb-12 18:24N 31°08' E 122°30'2 4.2
2018-Feb-12 17:48N 31°10' E 122°32'  
2018-Feb-08 05:30N 41°24' E 140°24'1610.9
2018-Feb-08 04:00N 41°33' E 140°42'611.6
2018-Feb-08 03:30N 41°36' E 140°49'2512.2
2018-Feb-08 01:30N 41°37' E 141°22'611.6
2018-Feb-08 01:00N 41°38' E 141°30'  
2018-Feb-04 00:00N 53°18' E 166°30'   030 / 181010.0 5.4 2.0 4.0
Track history (hours):
 
Tides and Currents Weather Stations Pressure Air Temp Water Temp Dewpoint Dewpoint Depression Visibility Wind Speed Wind Dir Waves Ship Positions

Ernst Oldendorff

Last reported at 2018-Feb-13 07:10 UTC. Time now 2018-Feb-17 19:21 UTC.
Position N 32°01' E 120°23'.

Length 180 m; draft 9.7 m.

Type: Cargo ship. MMSI: 256606000.

Date/timePositionNaut miles runAvg speedWind from/ knotsBaromVisibWave heightAir tempDewpointWater temp
2018-Feb-13 07:10N 32°01' E 120°23'211.9
2018-Feb-13 06:59N 32°02' E 120°26'3610.1
2018-Feb-13 03:26N 31°46' E 121°03'613.7
2018-Feb-13 03:00N 31°42' E 121°09'713.6
2018-Feb-13 02:30N 31°38' E 121°15'613.1
2018-Feb-13 02:01N 31°33' E 121°20'611.7
2018-Feb-13 01:31N 31°30' E 121°26'510.2
2018-Feb-13 01:00N 31°26' E 121°30'4 7.4
2018-Feb-13 00:30N 31°24' E 121°33'611.4
2018-Feb-13 00:00N 31°21' E 121°39'611.2
2018-Feb-12 23:29N 31°19' E 121°45'511.1
2018-Feb-12 23:00N 31°16' E 121°51'4 8.9
2018-Feb-12 22:30N 31°15' E 121°56'5 9.0
2018-Feb-12 21:59N 31°15' E 122°01'5 9.6
2018-Feb-12 21:30N 31°13' E 122°07'510.4
2018-Feb-12 21:00N 31°10' E 122°12'510.3
2018-Feb-12 20:30N 31°07' E 122°17'510.9
2018-Feb-12 20:00N 31°06' E 122°23'5 8.2
2018-Feb-12 19:21N 31°07' E 122°29'1 1.5
2018-Feb-12 18:56N 31°07' E 122°30'1 1.5
2018-Feb-12 18:24N 31°08' E 122°30'2 4.2
2018-Feb-12 17:48N 31°10' E 122°32'  
2018-Feb-08 05:30N 41°24' E 140°24'1610.9
2018-Feb-08 04:00N 41°33' E 140°42'611.6
2018-Feb-08 03:30N 41°36' E 140°49'2512.2
2018-Feb-08 01:30N 41°37' E 141°22'611.6
2018-Feb-08 01:00N 41°38' E 141°30'  
2018-Feb-04 00:00N 53°18' E 166°30'   030 / 181010.0 5.4 2.0 4.0

Dump ship's entire track history